Time;durP1;ratioP1;P1;durP2;ratioP2;P2;SDS_P1;SDS_P2;PMS_P1;PMS_P2;Temp;Humidity;BMP_temperature;BMP_pressure;BME280_temperature;BME280_humidity;BME280_pressure;Samples;Min_cycle;Max_cycle;Signal;HPM_P1;HPM_P2
2022/12/03 00:00:30;;;;;;;29.43;20.10;;;;;;;;;;4945232;28;20237;-82
2022/12/03 00:02:56;;;;;;;31.70;21.03;;;;;;;;;;4944993;28;20194;-82
2022/12/03 00:05:22;;;;;;;29.83;20.93;;;;;;;;;;4945237;28;20190;-82
2022/12/03 00:07:48;;;;;;;32.43;21.53;;;;;;;;;;4945336;28;20187;-82
2022/12/03 00:10:14;;;;;;;29.97;21.50;;;;;;;;;;4938640;28;20201;-82
2022/12/03 00:12:40;;;;;;;32.23;22.03;;;;;;;;;;4944322;28;20273;-82
2022/12/03 00:15:07;;;;;;;33.97;22.03;;;;;;;;;;4977512;28;20195;-78
2022/12/03 00:17:33;;;;;;;30.67;22.17;;;;;;;;;;4960411;28;20210;-78
2022/12/03 00:19:59;;;;;;;31.20;20.80;;;;;;;;;;4944561;28;20222;-82
2022/12/03 00:22:25;;;;;;;30.63;21.60;;;;;;;;;;4958888;28;20198;-82
2022/12/03 00:24:51;;;;;;;32.87;21.30;;;;;;;;;;4931931;29;20202;-82
2022/12/03 00:27:17;;;;;;;34.00;22.57;;;;;;;;;;4973943;28;20190;-82
2022/12/03 00:29:43;;;;;;;31.17;21.03;;;;;;;;;;4952383;28;20222;-82
2022/12/03 00:32:12;;;;;;;32.93;21.57;;;;;;;;;;4959381;28;20199;-80
2022/12/03 00:34:38;;;;;;;32.67;22.10;;;;;;;;;;4960128;28;20190;-80
2022/12/03 00:37:04;;;;;;;32.07;22.37;;;;;;;;;;4959076;28;20201;-80
2022/12/03 00:39:30;;;;;;;32.50;21.57;;;;;;;;;;4943546;28;20254;-80
2022/12/03 00:41:56;;;;;;;32.87;22.63;;;;;;;;;;4943419;29;20218;-80
2022/12/03 00:44:23;;;;;;;31.93;21.00;;;;;;;;;;4959399;28;20202;-80
2022/12/03 00:46:49;;;;;;;31.23;21.37;;;;;;;;;;4943407;28;20198;-80
2022/12/03 00:49:15;;;;;;;32.10;21.60;;;;;;;;;;4944140;28;20333;-78
2022/12/03 00:51:41;;;;;;;33.30;22.90;;;;;;;;;;4974838;28;20197;-78
2022/12/03 00:54:07;;;;;;;32.40;22.20;;;;;;;;;;4942738;28;20222;-78
2022/12/03 00:56:33;;;;;;;32.50;21.80;;;;;;;;;;4960791;28;20227;-78
2022/12/03 00:58:59;;;;;;;35.07;22.67;;;;;;;;;;4938088;28;20213;-78
2022/12/03 01:01:25;;;;;;;37.13;23.47;;;;;;;;;;4962647;28;20187;-78
2022/12/03 01:03:51;;;;;;;33.33;22.17;;;;;;;;;;4957231;28;20187;-78
2022/12/03 01:06:17;;;;;;;35.00;22.87;;;;;;;;;;4945975;28;20214;-82
2022/12/03 01:08:43;;;;;;;34.70;22.93;;;;;;;;;;4961957;28;20210;-82
2022/12/03 01:11:36;;;;;;;33.83;22.57;;;;;;;;;;4959664;28;20278;-82
2022/12/03 01:13:55;;;;;;;32.43;21.90;;;;;;;;;;4966396;28;20202;-82
2022/12/03 01:16:21;;;;;;;35.80;24.03;;;;;;;;;;4943435;28;20195;-82
2022/12/03 01:18:47;;;;;;;35.37;22.80;;;;;;;;;;4955684;28;20306;-82
2022/12/03 01:21:13;;;;;;;37.03;23.13;;;;;;;;;;4941120;28;20186;-80
2022/12/03 01:23:39;;;;;;;36.70;23.70;;;;;;;;;;4962001;28;20187;-80
2022/12/03 01:26:05;;;;;;;34.40;23.17;;;;;;;;;;4967218;28;20249;-80
2022/12/03 01:28:31;;;;;;;35.77;23.40;;;;;;;;;;4967165;28;20182;-80
2022/12/03 01:33:41;;;;;;;35.93;23.47;;;;;;;;;;4973709;28;20198;-80
2022/12/03 01:36:07;;;;;;;37.10;23.83;;;;;;;;;;4967872;28;20183;-80
2022/12/03 01:38:33;;;;;;;38.13;23.10;;;;;;;;;;4950810;28;20194;-79
2022/12/03 01:40:59;;;;;;;34.97;23.37;;;;;;;;;;4974788;28;20183;-78
2022/12/03 01:43:25;;;;;;;40.03;23.63;;;;;;;;;;4951414;28;20199;-78
2022/12/03 01:45:51;;;;;;;35.47;23.87;;;;;;;;;;4959700;28;20194;-79
2022/12/03 01:48:17;;;;;;;37.93;24.17;;;;;;;;;;4940637;28;20194;-78
2022/12/03 01:50:44;;;;;;;35.53;23.03;;;;;;;;;;4947674;28;20190;-78
2022/12/03 01:53:14;;;;;;;36.00;23.50;;;;;;;;;;4959088;28;20190;-78
2022/12/03 01:55:40;;;;;;;36.00;23.70;;;;;;;;;;4975300;28;20213;-81
2022/12/03 01:58:06;;;;;;;37.63;24.63;;;;;;;;;;4942416;28;20235;-82
2022/12/03 02:00:32;;;;;;;39.87;25.50;;;;;;;;;;4942896;28;20214;-82
2022/12/03 02:03:03;;;;;;;37.47;23.93;;;;;;;;;;4974222;28;20202;-81
2022/12/03 02:05:30;;;;;;;36.80;24.17;;;;;;;;;;4958915;28;20226;-82
2022/12/03 02:07:57;;;;;;;37.07;24.20;;;;;;;;;;4973244;28;20187;-81
2022/12/03 02:10:25;;;;;;;33.73;23.67;;;;;;;;;;4975720;28;20195;-81
2022/12/03 02:12:57;;;;;;;38.07;24.70;;;;;;;;;;4959188;28;20229;-80
2022/12/03 02:15:23;;;;;;;35.87;24.43;;;;;;;;;;4958434;28;20190;-80
2022/12/03 02:17:50;;;;;;;36.67;24.80;;;;;;;;;;4943053;28;20195;-80
2022/12/03 02:20:16;;;;;;;38.63;25.03;;;;;;;;;;4969542;28;20206;-79
2022/12/03 02:22:47;;;;;;;36.70;24.07;;;;;;;;;;4934318;28;20191;-78
2022/12/03 02:25:13;;;;;;;39.30;24.60;;;;;;;;;;4958736;28;20182;-78
2022/12/03 02:27:40;;;;;;;37.13;24.07;;;;;;;;;;4975886;28;20270;-79
2022/12/03 02:30:06;;;;;;;34.20;24.30;;;;;;;;;;4975765;28;20220;-80
2022/12/03 02:32:32;;;;;;;37.40;24.97;;;;;;;;;;4975443;28;20193;-80
2022/12/03 02:34:58;;;;;;;37.10;25.10;;;;;;;;;;4974837;28;20254;-80
2022/12/03 02:37:27;;;;;;;37.60;25.33;;;;;;;;;;4958447;28;20245;-80
2022/12/03 02:39:54;;;;;;;37.67;25.67;;;;;;;;;;4943519;28;20235;-80
2022/12/03 02:42:35;;;;;;;38.63;24.87;;;;;;;;;;4958533;28;20245;-80
2022/12/03 02:45:05;;;;;;;39.37;25.53;;;;;;;;;;4938117;29;20187;-81
2022/12/03 02:47:32;;;;;;;39.53;24.97;;;;;;;;;;4955179;29;20182;-82
2022/12/03 02:49:59;;;;;;;39.83;24.97;;;;;;;;;;4964393;28;20253;-82
2022/12/03 02:52:26;;;;;;;37.57;25.33;;;;;;;;;;4939255;29;20190;-82
2022/12/03 02:54:52;;;;;;;36.03;25.20;;;;;;;;;;4969415;28;20228;-82
2022/12/03 02:57:18;;;;;;;39.37;25.40;;;;;;;;;;4973898;28;20246;-81
2022/12/03 02:59:44;;;;;;;41.47;26.50;;;;;;;;;;4962149;28;20211;-81
2022/12/03 03:02:11;;;;;;;37.00;24.63;;;;;;;;;;4958372;28;20183;-80
2022/12/03 03:04:37;;;;;;;38.87;25.23;;;;;;;;;;4956884;28;20213;-80
2022/12/03 03:07:04;;;;;;;36.00;25.10;;;;;;;;;;4957937;28;20213;-80
2022/12/03 03:09:30;;;;;;;39.57;25.73;;;;;;;;;;4958012;28;20246;-80
2022/12/03 03:11:56;;;;;;;36.07;24.40;;;;;;;;;;4938788;29;20201;-80
2022/12/03 03:14:22;;;;;;;33.90;23.83;;;;;;;;;;4971291;28;20194;-80
2022/12/03 03:16:54;;;;;;;33.37;22.47;;;;;;;;;;4958013;28;20266;-79
2022/12/03 03:19:22;;;;;;;30.33;21.13;;;;;;;;;;4942683;28;20233;-82
2022/12/03 03:21:48;;;;;;;34.13;21.77;;;;;;;;;;4957767;28;20183;-82
2022/12/03 03:24:14;;;;;;;30.77;21.53;;;;;;;;;;4957858;28;20179;-82
2022/12/03 03:26:40;;;;;;;28.33;20.27;;;;;;;;;;4939714;28;20191;-82
2022/12/03 03:29:06;;;;;;;28.40;20.37;;;;;;;;;;4951530;28;20199;-82
2022/12/03 03:31:32;;;;;;;28.70;20.53;;;;;;;;;;4973912;28;20182;-82
2022/12/03 03:33:58;;;;;;;29.97;21.07;;;;;;;;;;4958193;28;20206;-82
2022/12/03 03:36:24;;;;;;;27.47;20.20;;;;;;;;;;4953344;29;20254;-78
2022/12/03 03:38:50;;;;;;;30.47;20.37;;;;;;;;;;4955303;29;20218;-77
2022/12/03 03:41:17;;;;;;;28.53;20.07;;;;;;;;;;4965016;28;20195;-78
2022/12/03 03:43:44;;;;;;;27.40;19.60;;;;;;;;;;4957532;28;20271;-77
2022/12/03 03:46:10;;;;;;;29.07;19.93;;;;;;;;;;4957701;28;20254;-78
2022/12/03 03:48:37;;;;;;;27.13;20.10;;;;;;;;;;4957195;28;20190;-78
2022/12/03 03:51:07;;;;;;;27.47;18.73;;;;;;;;;;4974390;28;20222;-78
2022/12/03 03:53:34;;;;;;;28.13;20.27;;;;;;;;;;4974054;28;20179;-77
2022/12/03 03:56:00;;;;;;;29.07;20.40;;;;;;;;;;4958729;28;20279;-77
2022/12/03 03:58:26;;;;;;;29.60;20.57;;;;;;;;;;4970965;28;20298;-77
2022/12/03 04:00:52;;;;;;;28.73;20.33;;;;;;;;;;4949139;29;20242;-78
2022/12/03 04:03:18;;;;;;;29.97;21.27;;;;;;;;;;4971951;28;20191;-78
2022/12/03 04:05:45;;;;;;;29.47;20.63;;;;;;;;;;4973785;28;20190;-77
2022/12/03 04:08:11;;;;;;;31.30;21.70;;;;;;;;;;4975090;28;20180;-78
2022/12/03 04:13:21;;;;;;;31.57;21.33;;;;;;;;;;4941685;28;20227;-78
2022/12/03 04:15:47;;;;;;;28.63;19.47;;;;;;;;;;4949253;28;20198;-78
2022/12/03 04:22:38;;;;;;;30.13;20.00;;;;;;;;;;4960081;28;20229;-78
2022/12/03 04:23:44;;;;;;;33.37;21.73;;;;;;;;;;4978002;28;20190;-78
2022/12/03 04:28:54;;;;;;;31.10;21.47;;;;;;;;;;4977764;28;20256;-79
2022/12/03 04:36:49;;;;;;;31.70;21.33;;;;;;;;;;4963769;28;20221;-80
2022/12/03 04:39:15;;;;;;;31.47;21.73;;;;;;;;;;4944483;28;20233;-80
2022/12/03 04:41:41;;;;;;;32.67;21.93;;;;;;;;;;4960775;28;20182;-78
2022/12/03 04:46:51;;;;;;;34.40;22.80;;;;;;;;;;4962063;28;20201;-78
2022/12/03 04:49:17;;;;;;;34.00;23.33;;;;;;;;;;4960429;28;20176;-78
2022/12/03 04:51:43;;;;;;;34.20;23.03;;;;;;;;;;4944280;28;20214;-78
2022/12/03 04:54:09;;;;;;;34.73;23.77;;;;;;;;;;4944382;28;20329;-78
2022/12/03 04:56:35;;;;;;;34.30;22.60;;;;;;;;;;4935233;29;20238;-78
2022/12/03 04:59:01;;;;;;;36.17;23.23;;;;;;;;;;4960186;28;20223;-80
2022/12/03 05:01:27;;;;;;;34.07;23.23;;;;;;;;;;4943780;28;20193;-79
2022/12/03 05:03:53;;;;;;;37.07;23.63;;;;;;;;;;4941273;29;20203;-78
2022/12/03 05:06:19;;;;;;;37.33;24.27;;;;;;;;;;4972499;28;20186;-78
2022/12/03 05:08:46;;;;;;;36.60;24.97;;;;;;;;;;4962225;28;20187;-78
2022/12/03 05:11:11;;;;;;;35.33;23.63;;;;;;;;;;4962072;28;20183;-79
2022/12/03 05:13:37;;;;;;;37.23;24.50;;;;;;;;;;4967886;28;20192;-79
2022/12/03 05:16:04;;;;;;;37.80;25.00;;;;;;;;;;4956806;28;20182;-78
2022/12/03 05:18:30;;;;;;;39.13;24.60;;;;;;;;;;4972451;28;20199;-78
2022/12/03 05:20:55;;;;;;;38.57;24.67;;;;;;;;;;4958645;28;20231;-78
2022/12/03 05:23:21;;;;;;;39.00;25.73;;;;;;;;;;4959706;28;20178;-78
2022/12/03 05:25:48;;;;;;;42.40;26.63;;;;;;;;;;4948696;28;20190;-78
2022/12/03 05:28:14;;;;;;;38.23;26.10;;;;;;;;;;4957992;28;20183;-78
2022/12/03 05:30:40;;;;;;;40.17;26.10;;;;;;;;;;4966761;28;20232;-78
2022/12/03 05:33:06;;;;;;;39.80;26.27;;;;;;;;;;4966176;28;20191;-82
2022/12/03 05:35:32;;;;;;;39.67;26.00;;;;;;;;;;4965752;28;20278;-82
2022/12/03 05:37:58;;;;;;;39.67;26.87;;;;;;;;;;4952961;28;20207;-82
2022/12/03 05:40:24;;;;;;;37.27;25.70;;;;;;;;;;4974854;28;20222;-82
2022/12/03 05:42:53;;;;;;;37.47;25.87;;;;;;;;;;4973625;28;20183;-82
2022/12/03 05:45:30;;;;;;;38.90;26.27;;;;;;;;;;4950610;28;20286;-82
2022/12/03 05:47:56;;;;;;;39.80;26.03;;;;;;;;;;4965583;28;20202;-82
2022/12/03 05:50:24;;;;;;;41.00;26.70;;;;;;;;;;4959477;28;20291;-82
2022/12/03 05:52:50;;;;;;;38.63;26.37;;;;;;;;;;4957586;28;20187;-82
2022/12/03 05:55:16;;;;;;;40.63;26.80;;;;;;;;;;4943352;28;20205;-82
2022/12/03 05:57:42;;;;;;;40.17;26.07;;;;;;;;;;4943526;28;20238;-82
2022/12/03 06:00:28;;;;;;;36.77;25.10;;;;;;;;;;4950848;28;20319;-82
2022/12/03 06:02:54;;;;;;;38.13;25.37;;;;;;;;;;4958985;28;20265;-82
2022/12/03 06:05:20;;;;;;;37.23;24.60;;;;;;;;;;4958071;28;20249;-82
2022/12/03 06:07:47;;;;;;;36.17;23.33;;;;;;;;;;4976478;28;20283;-82
2022/12/03 06:10:14;;;;;;;35.23;23.03;;;;;;;;;;4976817;28;20265;-83
2022/12/03 06:12:41;;;;;;;37.03;23.10;;;;;;;;;;4959270;28;20237;-82
2022/12/03 06:15:07;;;;;;;33.20;22.30;;;;;;;;;;4943189;28;20237;-82
2022/12/03 06:17:33;;;;;;;34.97;21.97;;;;;;;;;;4959439;28;20191;-82
2022/12/03 06:20:00;;;;;;;35.23;21.37;;;;;;;;;;4959271;28;20311;-82
2022/12/03 06:22:26;;;;;;;35.10;21.13;;;;;;;;;;4959239;28;20186;-79
2022/12/03 06:24:51;;;;;;;31.80;21.20;;;;;;;;;;4943327;28;20186;-79
2022/12/03 06:27:17;;;;;;;32.40;20.77;;;;;;;;;;4943305;28;20183;-79
2022/12/03 06:29:44;;;;;;;32.30;19.80;;;;;;;;;;4943371;28;20187;-79
2022/12/03 06:32:09;;;;;;;30.37;19.67;;;;;;;;;;4954069;29;20187;-79
2022/12/03 06:34:35;;;;;;;34.00;20.70;;;;;;;;;;4956667;29;20183;-79
2022/12/03 06:37:02;;;;;;;29.60;18.60;;;;;;;;;;4956654;29;20179;-79
2022/12/03 06:39:28;;;;;;;33.20;19.50;;;;;;;;;;4955941;28;20223;-82
2022/12/03 06:41:54;;;;;;;30.20;20.37;;;;;;;;;;4955458;29;20195;-81
2022/12/03 06:44:20;;;;;;;31.57;20.27;;;;;;;;;;4955350;29;20193;-82
2022/12/03 06:46:46;;;;;;;32.70;20.83;;;;;;;;;;4955658;29;20186;-82
2022/12/03 06:49:12;;;;;;;32.80;20.03;;;;;;;;;;4955048;29;20219;-82
2022/12/03 06:51:38;;;;;;;37.97;22.20;;;;;;;;;;4955387;29;20194;-82
2022/12/03 06:54:05;;;;;;;36.43;22.40;;;;;;;;;;4955475;29;20179;-82
2022/12/03 06:56:31;;;;;;;35.30;21.33;;;;;;;;;;4955151;29;20183;-82
2022/12/03 06:58:57;;;;;;;42.17;23.17;;;;;;;;;;4955258;29;20211;-82
2022/12/03 07:01:23;;;;;;;38.20;23.40;;;;;;;;;;4955098;29;20194;-82
2022/12/03 07:03:49;;;;;;;45.27;25.03;;;;;;;;;;4955277;29;20231;-82
2022/12/03 07:06:15;;;;;;;45.63;24.87;;;;;;;;;;4956941;28;20193;-81
2022/12/03 07:08:41;;;;;;;44.43;26.40;;;;;;;;;;4970241;28;20188;-82
2022/12/03 07:11:29;;;;;;;45.43;26.13;;;;;;;;;;4951485;28;20190;-80
2022/12/03 07:13:54;;;;;;;42.97;25.23;;;;;;;;;;4964215;28;20299;-80
2022/12/03 07:16:20;;;;;;;49.73;27.90;;;;;;;;;;4939266;29;20278;-80
2022/12/03 07:18:46;;;;;;;45.50;25.37;;;;;;;;;;4956663;28;20182;-80
2022/12/03 07:21:12;;;;;;;43.90;26.90;;;;;;;;;;4957833;28;20187;-80
2022/12/03 07:23:38;;;;;;;45.40;26.37;;;;;;;;;;4946455;28;20288;-80
2022/12/03 07:26:04;;;;;;;49.73;27.73;;;;;;;;;;4960041;28;20236;-80
2022/12/03 07:28:30;;;;;;;47.63;27.43;;;;;;;;;;4965191;28;20202;-78
2022/12/03 07:30:55;;;;;;;51.97;28.27;;;;;;;;;;4965441;28;20189;-79
2022/12/03 07:33:21;;;;;;;52.17;28.93;;;;;;;;;;4934388;28;20185;-79
2022/12/03 07:35:47;;;;;;;46.67;27.40;;;;;;;;;;4936233;28;20191;-78
2022/12/03 07:38:13;;;;;;;54.13;30.50;;;;;;;;;;4974733;28;20563;-78
2022/12/03 07:40:39;;;;;;;51.27;29.20;;;;;;;;;;4953221;28;20216;-78
2022/12/03 07:43:05;;;;;;;50.60;28.67;;;;;;;;;;4944668;28;20226;-78
2022/12/03 07:45:31;;;;;;;53.27;29.60;;;;;;;;;;4966205;28;20244;-78
2022/12/03 07:47:57;;;;;;;50.20;30.07;;;;;;;;;;4974993;28;20186;-78
2022/12/03 07:50:27;;;;;;;54.83;35.22;;;;;;;;;;4959128;28;20492;-78
2022/12/03 07:52:53;;;;;;;53.17;31.07;;;;;;;;;;4962025;28;20182;-78
2022/12/03 07:55:19;;;;;;;50.93;28.57;;;;;;;;;;4956069;28;20233;-78
2022/12/03 07:57:45;;;;;;;52.97;29.57;;;;;;;;;;4953783;28;20234;-78
2022/12/03 08:00:14;;;;;;;52.50;28.90;;;;;;;;;;4978251;28;20209;-78
2022/12/03 08:02:40;;;;;;;51.33;29.43;;;;;;;;;;4958176;28;20211;-78
2022/12/03 08:05:06;;;;;;;53.40;29.33;;;;;;;;;;4978377;28;20195;-80
2022/12/03 08:07:33;;;;;;;58.10;30.83;;;;;;;;;;4978272;28;20214;-80
2022/12/03 08:09:59;;;;;;;55.87;32.00;;;;;;;;;;4954859;28;20227;-80
2022/12/03 08:12:38;;;;;;;56.83;32.77;;;;;;;;;;4937575;28;20184;-80
2022/12/03 08:15:18;;;;;;;60.87;32.17;;;;;;;;;;4976202;28;20186;-82
2022/12/03 08:17:45;;;;;;;59.77;31.40;;;;;;;;;;4957581;28;20178;-79
2022/12/03 08:20:16;;;;;;;57.57;31.07;;;;;;;;;;4963668;28;20214;-79
2022/12/03 08:22:43;;;;;;;59.83;31.40;;;;;;;;;;4976853;28;20187;-78
2022/12/03 08:25:25;;;;;;;59.00;32.80;;;;;;;;;;4957840;28;20185;-79
2022/12/03 08:27:53;;;;;;;56.93;31.97;;;;;;;;;;4956202;28;20181;-79
2022/12/03 08:30:20;;;;;;;58.20;32.30;;;;;;;;;;4950415;28;20210;-79
2022/12/03 08:32:46;;;;;;;56.37;32.17;;;;;;;;;;4957969;29;20211;-79
2022/12/03 08:35:18;;;;;;;52.03;30.10;;;;;;;;;;4958269;29;20278;-78
2022/12/03 08:37:44;;;;;;;58.07;31.67;;;;;;;;;;4957759;29;20180;-79
2022/12/03 08:40:20;;;;;;;55.57;30.63;;;;;;;;;;4926328;29;20222;-79
2022/12/03 08:42:45;;;;;;;58.00;31.57;;;;;;;;;;4957828;29;20179;-79
2022/12/03 08:45:38;;;;;;;53.07;30.53;;;;;;;;;;4941667;29;20182;-79
2022/12/03 08:48:23;;;;;;;56.47;30.07;;;;;;;;;;4958719;29;20255;-79
2022/12/03 08:50:49;;;;;;;53.93;29.30;;;;;;;;;;4958794;29;20180;-79
2022/12/03 08:53:29;;;;;;;49.93;29.47;;;;;;;;;;4957715;29;20183;-79
2022/12/03 08:56:00;;;;;;;54.90;30.43;;;;;;;;;;4960136;28;20186;-79
2022/12/03 08:58:30;;;;;;;52.87;28.17;;;;;;;;;;4978028;28;20230;-79
2022/12/03 09:00:58;;;;;;;51.53;29.43;;;;;;;;;;4959746;28;20211;-79
2022/12/03 09:03:24;;;;;;;56.87;29.17;;;;;;;;;;4960273;28;20202;-79
2022/12/03 09:05:50;;;;;;;53.23;29.47;;;;;;;;;;4960560;28;20301;-79
2022/12/03 09:08:16;;;;;;;54.43;29.60;;;;;;;;;;4977428;28;20175;-79
2022/12/03 09:10:42;;;;;;;51.23;28.60;;;;;;;;;;4960325;28;20274;-83
2022/12/03 09:13:08;;;;;;;52.50;29.13;;;;;;;;;;4944412;28;20234;-79
2022/12/03 09:15:34;;;;;;;55.70;29.53;;;;;;;;;;4944896;28;20197;-79
2022/12/03 09:18:00;;;;;;;54.40;28.97;;;;;;;;;;4960610;28;20187;-79
2022/12/03 09:20:26;;;;;;;54.83;28.80;;;;;;;;;;4944247;28;20218;-79
2022/12/03 09:22:52;;;;;;;53.87;28.73;;;;;;;;;;4944781;28;20186;-79
2022/12/03 09:25:18;;;;;;;48.53;26.97;;;;;;;;;;4960245;28;20264;-79
2022/12/03 09:27:44;;;;;;;49.20;26.60;;;;;;;;;;4960424;28;20302;-79
2022/12/03 09:30:10;;;;;;;53.60;28.17;;;;;;;;;;4944021;28;20198;-79
2022/12/03 09:32:37;;;;;;;51.60;27.73;;;;;;;;;;4943903;28;20190;-79
2022/12/03 09:35:03;;;;;;;53.50;28.93;;;;;;;;;;4977482;28;20183;-79
2022/12/03 09:37:29;;;;;;;49.83;26.87;;;;;;;;;;4959971;28;20186;-79
2022/12/03 09:39:55;;;;;;;51.80;26.30;;;;;;;;;;4959315;28;20215;-79
2022/12/03 09:42:21;;;;;;;47.13;26.37;;;;;;;;;;4960079;28;20183;-79
2022/12/03 09:44:47;;;;;;;46.70;25.77;;;;;;;;;;4976181;28;20174;-79
2022/12/03 09:47:13;;;;;;;48.27;26.10;;;;;;;;;;4960009;28;20243;-80
2022/12/03 09:49:39;;;;;;;48.40;25.00;;;;;;;;;;4959997;28;20190;-80
2022/12/03 09:52:05;;;;;;;49.90;25.57;;;;;;;;;;4976903;28;20246;-80
2022/12/03 09:54:32;;;;;;;45.73;25.30;;;;;;;;;;4977239;28;20181;-80
2022/12/03 09:57:03;;;;;;;43.60;22.43;;;;;;;;;;4975344;28;20230;-80
2022/12/03 09:59:33;;;;;;;43.90;22.83;;;;;;;;;;4976675;28;20213;-83
2022/12/03 10:01:59;;;;;;;39.77;21.33;;;;;;;;;;4959625;28;20205;-83
2022/12/03 10:04:26;;;;;;;41.90;23.30;;;;;;;;;;4975589;28;20189;-82
2022/12/03 10:06:52;;;;;;;42.60;23.23;;;;;;;;;;4975927;28;20206;-83
2022/12/03 10:09:22;;;;;;;41.87;22.73;;;;;;;;;;4975510;28;20249;-83
2022/12/03 10:11:48;;;;;;;43.53;23.37;;;;;;;;;;4975564;28;20257;-82
2022/12/03 10:14:15;;;;;;;40.10;23.20;;;;;;;;;;4943031;28;20236;-79
2022/12/03 10:16:41;;;;;;;40.83;22.63;;;;;;;;;;4983514;28;20191;-79
2022/12/03 10:19:11;;;;;;;43.67;22.87;;;;;;;;;;4943207;28;20234;-79
2022/12/03 10:21:38;;;;;;;38.97;22.70;;;;;;;;;;4976362;28;20178;-79
2022/12/03 10:24:27;;;;;;;44.40;23.83;;;;;;;;;;4976315;28;20171;-78
2022/12/03 10:26:58;;;;;;;43.67;24.17;;;;;;;;;;4951571;28;20211;-79
2022/12/03 10:29:25;;;;;;;44.87;23.90;;;;;;;;;;4959079;28;20186;-78
2022/12/03 10:32:02;;;;;;;43.70;24.00;;;;;;;;;;4971494;28;20191;-79
2022/12/03 10:34:30;;;;;;;45.43;23.93;;;;;;;;;;4955640;29;20278;-79
2022/12/03 10:37:25;;;;;;;45.60;23.00;;;;;;;;;;4956586;29;20190;-79
2022/12/03 10:40:07;;;;;;;43.60;22.67;;;;;;;;;;4931476;29;20223;-77
2022/12/03 10:42:34;;;;;;;41.67;22.80;;;;;;;;;;4955641;29;20237;-78
2022/12/03 10:45:15;;;;;;;41.77;22.17;;;;;;;;;;4974368;28;20191;-77
2022/12/03 10:47:41;;;;;;;42.80;22.27;;;;;;;;;;4975898;28;20189;-78
2022/12/03 10:50:15;;;;;;;39.20;22.57;;;;;;;;;;4942897;28;20219;-79
2022/12/03 10:52:41;;;;;;;40.53;21.53;;;;;;;;;;4974623;28;20210;-79
2022/12/03 10:55:09;;;;;;;39.03;21.53;;;;;;;;;;4942760;28;20220;-79
2022/12/03 10:57:35;;;;;;;40.23;21.50;;;;;;;;;;4974388;28;20252;-79
2022/12/03 11:00:01;;;;;;;41.43;21.57;;;;;;;;;;4958735;28;20260;-79
2022/12/03 11:02:27;;;;;;;41.07;21.63;;;;;;;;;;4974949;28;20186;-79
2022/12/03 11:04:53;;;;;;;39.07;21.07;;;;;;;;;;4975086;28;20249;-78
2022/12/03 11:07:20;;;;;;;39.03;20.77;;;;;;;;;;4957438;28;20191;-78
2022/12/03 11:09:47;;;;;;;44.87;22.23;;;;;;;;;;4958219;28;20238;-78
2022/12/03 11:12:21;;;;;;;36.00;20.37;;;;;;;;;;5001285;23;20317;-79
2022/12/03 11:14:53;;;;;;;38.07;20.07;;;;;;;;;;5010276;28;20165;-80
2022/12/03 11:17:28;;;;;;;34.73;19.83;;;;;;;;;;4996179;28;20231;-80
2022/12/03 11:19:54;;;;;;;36.47;19.67;;;;;;;;;;5013504;28;20197;-80
2022/12/03 11:22:40;;;;;;;36.57;20.10;;;;;;;;;;4980212;28;20223;-79
2022/12/03 11:25:25;;;;;;;37.00;20.40;;;;;;;;;;5011052;28;20256;-78
2022/12/03 11:28:09;;;;;;;39.37;20.80;;;;;;;;;;4998761;28;20184;-78
2022/12/03 11:30:48;;;;;;;38.10;20.17;;;;;;;;;;5011522;28;20189;-78
2022/12/03 11:33:24;;;;;;;35.63;20.07;;;;;;;;;;4996039;28;20177;-78
2022/12/03 11:36:02;;;;;;;37.10;19.93;;;;;;;;;;4993757;28;20188;-78
2022/12/03 11:38:41;;;;;;;37.50;20.63;;;;;;;;;;4996243;28;20208;-82
2022/12/03 11:41:07;;;;;;;39.83;21.10;;;;;;;;;;4994274;28;20220;-82
2022/12/03 11:43:52;;;;;;;40.07;21.03;;;;;;;;;;4995127;28;20213;-82
2022/12/03 11:46:22;;;;;;;36.87;20.40;;;;;;;;;;4994560;28;20279;-82
2022/12/03 11:48:49;;;;;;;38.40;20.97;;;;;;;;;;5012789;28;20181;-82
2022/12/03 11:51:16;;;;;;;42.77;22.03;;;;;;;;;;4996217;28;20178;-82
2022/12/03 11:53:43;;;;;;;39.83;20.93;;;;;;;;;;4998422;28;20288;-82
2022/12/03 11:56:17;;;;;;;43.07;22.23;;;;;;;;;;5014564;28;20181;-79
2022/12/03 11:58:44;;;;;;;41.00;21.20;;;;;;;;;;5001955;28;20223;-79
2022/12/03 12:01:10;;;;;;;45.40;23.33;;;;;;;;;;5003270;28;20182;-79
2022/12/03 12:03:44;;;;;;;44.17;23.60;;;;;;;;;;5012962;28;20192;-79
2022/12/03 12:06:11;;;;;;;42.93;23.13;;;;;;;;;;4996531;28;20183;-79
2022/12/03 12:08:38;;;;;;;46.10;24.83;;;;;;;;;;5014340;28;20165;-78
2022/12/03 12:11:15;;;;;;;49.30;26.30;;;;;;;;;;5013316;28;20181;-78
2022/12/03 12:13:41;;;;;;;48.80;24.87;;;;;;;;;;5012369;28;20173;-78
2022/12/03 12:16:07;;;;;;;47.67;24.80;;;;;;;;;;5000926;28;20184;-78
2022/12/03 12:18:44;;;;;;;46.40;24.80;;;;;;;;;;5003531;28;20182;-78
2022/12/03 12:21:29;;;;;;;47.00;25.00;;;;;;;;;;4994403;28;20253;-79
2022/12/03 12:23:55;;;;;;;53.17;25.93;;;;;;;;;;5002648;28;20173;-79
2022/12/03 12:26:21;;;;;;;50.53;25.80;;;;;;;;;;5001446;28;20184;-79
2022/12/03 12:28:47;;;;;;;50.30;25.07;;;;;;;;;;5003792;28;20177;-78
2022/12/03 12:31:13;;;;;;;53.23;26.10;;;;;;;;;;5002587;28;20174;-78
2022/12/03 12:33:39;;;;;;;45.67;25.17;;;;;;;;;;5005912;28;20186;-78
2022/12/03 12:36:07;;;;;;;54.20;26.43;;;;;;;;;;5004956;28;20181;-78
2022/12/03 12:38:33;;;;;;;52.30;25.57;;;;;;;;;;5016521;28;20173;-78
2022/12/03 12:41:02;;;;;;;51.87;25.93;;;;;;;;;;4990865;28;20213;-78
2022/12/03 12:43:31;;;;;;;54.17;26.73;;;;;;;;;;5016785;28;20288;-82
2022/12/03 12:46:00;;;;;;;50.07;25.53;;;;;;;;;;4999932;28;20181;-83
2022/12/03 12:48:35;;;;;;;47.03;25.67;;;;;;;;;;4997954;28;20208;-82
2022/12/03 12:51:11;;;;;;;50.57;25.73;;;;;;;;;;4982901;28;20229;-82
2022/12/03 12:53:38;;;;;;;53.53;26.43;;;;;;;;;;4999344;28;20181;-82
2022/12/03 12:56:13;;;;;;;59.50;26.60;;;;;;;;;;4999136;28;20192;-82
2022/12/03 12:58:39;;;;;;;52.23;26.60;;;;;;;;;;5016761;28;20181;-82
2022/12/03 13:01:10;;;;;;;53.70;26.97;;;;;;;;;;4999527;28;20216;-83
2022/12/03 13:03:38;;;;;;;52.43;26.87;;;;;;;;;;4998919;28;20177;-82
2022/12/03 13:06:04;;;;;;;53.13;26.30;;;;;;;;;;4995491;28;20244;-82
2022/12/03 13:08:31;;;;;;;56.03;27.50;;;;;;;;;;4981976;28;20192;-83
2022/12/03 13:10:58;;;;;;;57.13;27.33;;;;;;;;;;4999095;28;20235;-82
2022/12/03 13:13:25;;;;;;;59.00;27.57;;;;;;;;;;4984862;28;20236;-83
2022/12/03 13:16:02;;;;;;;57.30;27.47;;;;;;;;;;4979741;28;20178;-83
2022/12/03 13:18:39;;;;;;;58.67;33.25;;;;;;;;;;4965898;28;20435;-82
2022/12/03 13:21:24;;;;;;;57.93;27.90;;;;;;;;;;4974734;28;20206;-82
2022/12/03 13:23:51;;;;;;;52.20;26.83;;;;;;;;;;4960221;28;20178;-80
2022/12/03 13:26:22;;;;;;;52.10;26.43;;;;;;;;;;4960153;28;20206;-80
2022/12/03 13:28:48;;;;;;;53.43;27.23;;;;;;;;;;4959713;28;20210;-80
2022/12/03 13:31:21;;;;;;;53.60;26.83;;;;;;;;;;4958648;28;20179;-80
2022/12/03 13:33:47;;;;;;;52.43;26.43;;;;;;;;;;4959596;28;20204;-79
2022/12/03 13:36:15;;;;;;;51.13;26.67;;;;;;;;;;4959950;28;20185;-78
2022/12/03 13:38:41;;;;;;;52.20;26.33;;;;;;;;;;4960332;28;20186;-78
2022/12/03 13:42:37;;;;;;;55.17;27.40;;;;;;;;;;4969236;28;20225;-78
2022/12/03 13:44:01;;;;;;;51.50;25.23;;;;;;;;;;4996245;28;20185;-78
2022/12/03 13:46:31;;;;;;;51.47;26.33;;;;;;;;;;4983301;28;20182;-78
2022/12/03 13:48:57;;;;;;;60.65;32.15;;;;;;;;;;4977524;28;20492;-78
2022/12/03 13:51:25;;;;;;;52.10;27.30;;;;;;;;;;4973118;28;20286;-81
2022/12/03 13:53:51;;;;;;;52.23;25.93;;;;;;;;;;4965528;28;20194;-82
2022/12/03 13:56:23;;;;;;;47.27;24.90;;;;;;;;;;4976120;28;20186;-82
2022/12/03 13:58:49;;;;;;;49.03;26.37;;;;;;;;;;4991996;28;20245;-82
2022/12/03 14:01:15;;;;;;;51.70;25.97;;;;;;;;;;4962918;28;20215;-79
2022/12/03 14:03:41;;;;;;;48.43;26.10;;;;;;;;;;4962719;28;20178;-79
2022/12/03 14:06:22;;;;;;;49.20;26.37;;;;;;;;;;4939969;28;20202;-79
2022/12/03 14:08:48;;;;;;;47.93;25.60;;;;;;;;;;4978543;28;20240;-77
2022/12/03 14:13:59;;;;;;;52.93;25.70;;;;;;;;;;5001116;28;20215;-78
2022/12/03 14:16:25;;;;;;;48.40;25.67;;;;;;;;;;4981764;28;20181;-78
2022/12/03 14:18:51;;;;;;;50.57;27.20;;;;;;;;;;5015111;28;20201;-79
2022/12/03 14:21:17;;;;;;;49.33;26.97;;;;;;;;;;4981558;28;20200;-80
2022/12/03 14:23:43;;;;;;;49.23;26.80;;;;;;;;;;4997548;28;20173;-80
2022/12/03 14:26:09;;;;;;;48.60;27.30;;;;;;;;;;4995773;28;20184;-78
2022/12/03 14:28:35;;;;;;;46.17;26.40;;;;;;;;;;4981555;28;20189;-78
2022/12/03 14:31:01;;;;;;;48.13;27.23;;;;;;;;;;4981442;28;20177;-78
2022/12/03 14:33:27;;;;;;;50.67;28.20;;;;;;;;;;5012595;28;20179;-78
2022/12/03 14:35:54;;;;;;;51.13;27.63;;;;;;;;;;4978910;28;20185;-77
2022/12/03 14:38:21;;;;;;;47.80;27.30;;;;;;;;;;4992205;28;20245;-77
2022/12/03 14:40:47;;;;;;;47.30;27.50;;;;;;;;;;4992935;28;20217;-77
2022/12/03 14:43:12;;;;;;;51.07;27.40;;;;;;;;;;4978969;28;20197;-82